sensor_id;sensor_type;location;lat;lon;timestamp;pressure;altitude;pressure_sealevel;temperature;humidity
32083;BME280;18597;48.328;7.932;2023-05-01T00:00:12;99411.38;;;10.70;100.00
32083;BME280;18597;48.328;7.932;2023-05-01T00:02:39;99401.16;;;10.85;100.00
32083;BME280;18597;48.328;7.932;2023-05-01T00:05:05;99392.28;;;10.84;100.00
32083;BME280;18597;48.328;7.932;2023-05-01T00:07:32;99394.97;;;10.84;100.00
32083;BME280;18597;48.328;7.932;2023-05-01T00:09:58;99396.25;;;10.90;100.00
32083;BME280;18597;48.328;7.932;2023-05-01T00:12:24;99392.56;;;11.01;100.00
32083;BME280;18597;48.328;7.932;2023-05-01T00:14:50;99396.38;;;11.08;100.00
32083;BME280;18597;48.328;7.932;2023-05-01T00:17:16;99387.53;;;11.07;100.00
32083;BME280;18597;48.328;7.932;2023-05-01T00:19:42;99383.84;;;11.08;100.00
32083;BME280;18597;48.328;7.932;2023-05-01T00:22:08;99393.00;;;11.06;100.00
32083;BME280;18597;48.328;7.932;2023-05-01T00:24:34;99384.44;;;11.12;100.00
32083;BME280;18597;48.328;7.932;2023-05-01T00:27:00;99374.59;;;11.13;100.00
32083;BME280;18597;48.328;7.932;2023-05-01T00:29:25;99377.13;;;11.14;100.00
32083;BME280;18597;48.328;7.932;2023-05-01T00:31:53;99371.06;;;11.12;100.00
32083;BME280;18597;48.328;7.932;2023-05-01T00:34:19;99368.81;;;11.07;100.00
32083;BME280;18597;48.328;7.932;2023-05-01T00:36:45;99366.28;;;11.06;100.00
32083;BME280;18597;48.328;7.932;2023-05-01T00:39:11;99367.41;;;11.23;100.00
32083;BME280;18597;48.328;7.932;2023-05-01T00:41:37;99365.16;;;11.08;100.00
32083;BME280;18597;48.328;7.932;2023-05-01T00:44:03;99362.19;;;11.02;100.00
32083;BME280;18597;48.328;7.932;2023-05-01T00:46:29;99356.16;;;11.00;100.00
32083;BME280;18597;48.328;7.932;2023-05-01T00:48:57;99353.47;;;11.00;100.00
32083;BME280;18597;48.328;7.932;2023-05-01T00:51:23;99351.34;;;10.94;100.00
32083;BME280;18597;48.328;7.932;2023-05-01T00:53:51;99344.19;;;10.84;100.00
32083;BME280;18597;48.328;7.932;2023-05-01T00:56:17;99350.94;;;10.89;100.00
32083;BME280;18597;48.328;7.932;2023-05-01T00:58:48;99345.47;;;10.90;100.00
32083;BME280;18597;48.328;7.932;2023-05-01T01:01:15;99341.38;;;10.86;100.00
32083;BME280;18597;48.328;7.932;2023-05-01T01:03:41;99339.38;;;10.88;100.00
32083;BME280;18597;48.328;7.932;2023-05-01T01:09:53;99332.25;;;10.89;100.00
32083;BME280;18597;48.328;7.932;2023-05-01T01:16:12;99317.47;;;11.04;100.00
32083;BME280;18597;48.328;7.932;2023-05-01T01:19:01;99317.75;;;10.91;100.00
32083;BME280;18597;48.328;7.932;2023-05-01T01:21:35;99325.19;;;10.78;100.00
32083;BME280;18597;48.328;7.932;2023-05-01T01:31:16;99305.50;;;10.89;100.00
32083;BME280;18597;48.328;7.932;2023-05-01T01:36:33;99310.56;;;10.92;100.00
32083;BME280;18597;48.328;7.932;2023-05-01T01:39:42;99308.44;;;10.95;100.00
32083;BME280;18597;48.328;7.932;2023-05-01T01:42:06;99307.91;;;10.92;100.00
32083;BME280;18597;48.328;7.932;2023-05-01T01:44:41;99298.88;;;10.93;100.00
32083;BME280;18597;48.328;7.932;2023-05-01T01:47:13;99293.41;;;10.94;100.00
32083;BME280;18597;48.328;7.932;2023-05-01T01:49:44;99300.72;;;11.11;100.00
32083;BME280;18597;48.328;7.932;2023-05-01T01:52:14;99298.59;;;11.05;100.00
32083;BME280;18597;48.328;7.932;2023-05-01T01:54:48;99298.47;;;10.88;100.00
32083;BME280;18597;48.328;7.932;2023-05-01T01:57:17;99299.31;;;10.98;100.00
32083;BME280;18597;48.328;7.932;2023-05-01T01:59:46;99299.59;;;11.04;100.00
32083;BME280;18597;48.328;7.932;2023-05-01T02:02:14;99297.63;;;11.06;100.00
32083;BME280;18597;48.328;7.932;2023-05-01T02:04:42;99286.78;;;11.08;100.00
32083;BME280;18597;48.328;7.932;2023-05-01T02:07:10;99292.41;;;10.86;100.00
32083;BME280;18597;48.328;7.932;2023-05-01T02:09:37;99286.94;;;10.77;100.00
32083;BME280;18597;48.328;7.932;2023-05-01T02:12:05;99289.19;;;10.82;100.00
32083;BME280;18597;48.328;7.932;2023-05-01T02:14:33;99286.78;;;10.98;100.00
32083;BME280;18597;48.328;7.932;2023-05-01T02:17:01;99282.56;;;11.05;100.00
32083;BME280;18597;48.328;7.932;2023-05-01T02:19:29;99283.97;;;11.00;100.00
32083;BME280;18597;48.328;7.932;2023-05-01T02:21:57;99290.16;;;11.00;100.00
32083;BME280;18597;48.328;7.932;2023-05-01T02:24:24;99289.88;;;10.94;100.00
32083;BME280;18597;48.328;7.932;2023-05-01T02:26:59;99289.88;;;10.94;100.00
32083;BME280;18597;48.328;7.932;2023-05-01T02:29:27;99283.56;;;11.04;100.00
32083;BME280;18597;48.328;7.932;2023-05-01T02:31:53;99287.22;;;11.03;100.00
32083;BME280;18597;48.328;7.932;2023-05-01T02:34:19;99287.34;;;11.02;100.00
32083;BME280;18597;48.328;7.932;2023-05-01T02:36:45;99282.44;;;10.88;100.00
32083;BME280;18597;48.328;7.932;2023-05-01T02:39:11;99277.81;;;10.90;100.00
32083;BME280;18597;48.328;7.932;2023-05-01T02:41:38;99278.91;;;10.77;100.00
32083;BME280;18597;48.328;7.932;2023-05-01T02:44:06;99279.22;;;10.84;100.00
32083;BME280;18597;48.328;7.932;2023-05-01T02:46:35;99283.44;;;10.77;100.00
32083;BME280;18597;48.328;7.932;2023-05-01T02:49:03;99277.78;;;10.70;100.00
32083;BME280;18597;48.328;7.932;2023-05-01T02:51:31;99274.69;;;10.65;100.00
32083;BME280;18597;48.328;7.932;2023-05-01T02:53:58;99276.66;;;10.63;100.00
32083;BME280;18597;48.328;7.932;2023-05-01T02:56:25;99276.41;;;10.66;100.00
32083;BME280;18597;48.328;7.932;2023-05-01T02:58:52;99274.44;;;10.68;100.00
32083;BME280;18597;48.328;7.932;2023-05-01T03:01:18;99270.34;;;10.64;100.00
32083;BME280;18597;48.328;7.932;2023-05-01T03:03:45;99270.34;;;10.64;100.00
32083;BME280;18597;48.328;7.932;2023-05-01T03:06:11;99262.31;;;10.64;100.00
32083;BME280;18597;48.328;7.932;2023-05-01T03:08:39;99262.91;;;10.68;100.00
32083;BME280;18597;48.328;7.932;2023-05-01T03:11:06;99261.47;;;10.64;100.00
32083;BME280;18597;48.328;7.932;2023-05-01T03:13:33;99258.41;;;10.68;100.00
32083;BME280;18597;48.328;7.932;2023-05-01T03:16:00;99258.81;;;10.83;100.00
32083;BME280;18597;48.328;7.932;2023-05-01T03:18:26;99256.53;;;10.88;100.00
32083;BME280;18597;48.328;7.932;2023-05-01T03:20:53;99253.63;;;10.81;100.00
32083;BME280;18597;48.328;7.932;2023-05-01T03:23:19;99255.44;;;10.81;100.00
32083;BME280;18597;48.328;7.932;2023-05-01T03:25:46;99256.44;;;10.90;100.00
32083;BME280;18597;48.328;7.932;2023-05-01T03:28:11;99248.94;;;10.93;100.00
32083;BME280;18597;48.328;7.932;2023-05-01T03:30:37;99253.88;;;10.98;100.00
32083;BME280;18597;48.328;7.932;2023-05-01T03:33:03;99258.63;;;11.14;100.00
32083;BME280;18597;48.328;7.932;2023-05-01T03:35:29;99259.34;;;11.06;100.00
32083;BME280;18597;48.328;7.932;2023-05-01T03:37:54;99258.22;;;10.99;100.00
32083;BME280;18597;48.328;7.932;2023-05-01T03:40:20;99262.44;;;11.11;100.00
32083;BME280;18597;48.328;7.932;2023-05-01T03:42:46;99259.34;;;11.06;100.00
32083;BME280;18597;48.328;7.932;2023-05-01T03:45:12;99258.78;;;11.02;100.00
32083;BME280;18597;48.328;7.932;2023-05-01T03:47:38;99263.59;;;10.99;100.00
32083;BME280;18597;48.328;7.932;2023-05-01T03:50:04;99264.97;;;11.03;100.00
32083;BME280;18597;48.328;7.932;2023-05-01T03:52:30;99269.56;;;11.30;100.00
32083;BME280;18597;48.328;7.932;2023-05-01T03:54:56;99273.25;;;11.19;100.00
32083;BME280;18597;48.328;7.932;2023-05-01T03:57:22;99267.91;;;11.09;100.00
32083;BME280;18597;48.328;7.932;2023-05-01T03:59:48;99271.72;;;11.26;100.00
32083;BME280;18597;48.328;7.932;2023-05-01T04:02:14;99274.38;;;11.26;100.00
32083;BME280;18597;48.328;7.932;2023-05-01T04:04:40;99274.38;;;11.17;100.00
32083;BME280;18597;48.328;7.932;2023-05-01T04:07:06;99273.00;;;11.13;100.00
32083;BME280;18597;48.328;7.932;2023-05-01T04:09:32;99272.00;;;11.14;100.00
32083;BME280;18597;48.328;7.932;2023-05-01T04:11:58;99275.22;;;11.17;100.00
32083;BME280;18597;48.328;7.932;2023-05-01T04:14:24;99277.47;;;11.22;100.00
32083;BME280;18597;48.328;7.932;2023-05-01T04:16:50;99282.25;;;11.28;100.00
32083;BME280;18597;48.328;7.932;2023-05-01T04:19:16;99283.78;;;11.30;100.00
32083;BME280;18597;48.328;7.932;2023-05-01T04:21:41;99284.59;;;11.40;100.00
32083;BME280;18597;48.328;7.932;2023-05-01T04:24:07;99285.03;;;11.36;100.00
32083;BME280;18597;48.328;7.932;2023-05-01T04:26:33;99285.03;;;11.36;100.00
32083;BME280;18597;48.328;7.932;2023-05-01T04:28:59;99281.78;;;11.42;100.00
32083;BME280;18597;48.328;7.932;2023-05-01T04:31:25;99283.06;;;11.38;100.00
32083;BME280;18597;48.328;7.932;2023-05-01T04:33:51;99286.31;;;11.42;100.00
32083;BME280;18597;48.328;7.932;2023-05-01T04:36:17;99298.50;;;11.54;100.00
32083;BME280;18597;48.328;7.932;2023-05-01T04:38:43;99283.75;;;11.50;100.00
32083;BME280;18597;48.328;7.932;2023-05-01T04:41:09;99284.75;;;11.49;100.00
32083;BME280;18597;48.328;7.932;2023-05-01T04:43:34;99287.25;;;11.50;100.00
32083;BME280;18597;48.328;7.932;2023-05-01T04:46:02;99287.66;;;11.55;100.00
32083;BME280;18597;48.328;7.932;2023-05-01T04:48:28;99287.06;;;11.61;100.00
32083;BME280;18597;48.328;7.932;2023-05-01T04:50:54;99290.56;;;11.72;100.00
32083;BME280;18597;48.328;7.932;2023-05-01T04:53:20;99278.16;;;11.71;100.00
32083;BME280;18597;48.328;7.932;2023-05-01T04:55:46;99288.63;;;11.54;100.00
32083;BME280;18597;48.328;7.932;2023-05-01T04:58:12;99286.97;;;11.53;100.00
32083;BME280;18597;48.328;7.932;2023-05-01T05:00:38;99288.75;;;11.72;100.00
32083;BME280;18597;48.328;7.932;2023-05-01T05:03:04;99298.59;;;11.81;100.00
32083;BME280;18597;48.328;7.932;2023-05-01T05:05:30;99292.25;;;11.82;100.00
32083;BME280;18597;48.328;7.932;2023-05-01T05:07:55;99300.81;;;11.86;100.00
32083;BME280;18597;48.328;7.932;2023-05-01T05:10:22;99299.81;;;11.77;100.00
32083;BME280;18597;48.328;7.932;2023-05-01T05:12:48;99294.91;;;11.82;100.00
32083;BME280;18597;48.328;7.932;2023-05-01T05:15:14;99297.16;;;11.87;100.00
32083;BME280;18597;48.328;7.932;2023-05-01T05:17:41;99302.94;;;11.82;100.00
32083;BME280;18597;48.328;7.932;2023-05-01T05:20:07;99304.06;;;11.70;100.00
32083;BME280;18597;48.328;7.932;2023-05-01T05:22:36;99302.13;;;11.72;100.00
32083;BME280;18597;48.328;7.932;2023-05-01T05:25:03;99309.16;;;11.73;100.00
32083;BME280;18597;48.328;7.932;2023-05-01T05:27:31;99313.06;;;11.88;100.00
32083;BME280;18597;48.328;7.932;2023-05-01T05:30:01;99311.34;;;11.97;100.00
32083;BME280;18597;48.328;7.932;2023-05-01T05:32:27;99310.25;;;12.17;100.00
32083;BME280;18597;48.328;7.932;2023-05-01T05:34:54;99314.97;;;12.33;100.00
32083;BME280;18597;48.328;7.932;2023-05-01T05:37:19;99317.81;;;12.49;100.00
32083;BME280;18597;48.328;7.932;2023-05-01T05:39:45;99318.22;;;12.55;100.00
32083;BME280;18597;48.328;7.932;2023-05-01T05:42:11;99317.59;;;12.61;100.00
32083;BME280;18597;48.328;7.932;2023-05-01T05:44:37;99315.91;;;12.60;100.00
32083;BME280;18597;48.328;7.932;2023-05-01T05:47:03;99316.22;;;12.57;100.00
32083;BME280;18597;48.328;7.932;2023-05-01T05:49:29;99315.91;;;12.60;100.00
32083;BME280;18597;48.328;7.932;2023-05-01T05:51:55;99318.59;;;12.60;100.00
32083;BME280;18597;48.328;7.932;2023-05-01T05:54:21;99317.16;;;12.65;100.00
32083;BME280;18597;48.328;7.932;2023-05-01T05:56:47;99323.75;;;12.71;100.00
32083;BME280;18597;48.328;7.932;2023-05-01T05:59:12;99324.59;;;12.71;100.00
32083;BME280;18597;48.328;7.932;2023-05-01T06:01:38;99329.94;;;12.71;100.00
32083;BME280;18597;48.328;7.932;2023-05-01T06:04:05;99338.22;;;12.78;100.00
32083;BME280;18597;48.328;7.932;2023-05-01T06:06:32;99329.94;;;12.89;100.00
32083;BME280;18597;48.328;7.932;2023-05-01T06:08:58;99326.88;;;13.02;100.00
32083;BME280;18597;48.328;7.932;2023-05-01T06:11:25;99331.69;;;13.16;100.00
32083;BME280;18597;48.328;7.932;2023-05-01T06:13:51;99334.69;;;13.31;100.00
32083;BME280;18597;48.328;7.932;2023-05-01T06:16:17;99338.81;;;13.43;100.00
32083;BME280;18597;48.328;7.932;2023-05-01T06:18:43;99330.19;;;13.57;100.00
32083;BME280;18597;48.328;7.932;2023-05-01T06:21:09;99338.00;;;13.69;100.00
32083;BME280;18597;48.328;7.932;2023-05-01T06:23:35;99338.72;;;13.79;100.00
32083;BME280;18597;48.328;7.932;2023-05-01T06:26:01;99343.63;;;13.83;100.00
32083;BME280;18597;48.328;7.932;2023-05-01T06:28:26;99337.88;;;13.78;100.00
32083;BME280;18597;48.328;7.932;2023-05-01T06:30:52;99340.56;;;13.78;100.00
32083;BME280;18597;48.328;7.932;2023-05-01T06:33:18;99343.44;;;13.59;100.00
32083;BME280;18597;48.328;7.932;2023-05-01T06:35:44;99342.44;;;13.16;100.00
32083;BME280;18597;48.328;7.932;2023-05-01T06:38:10;99338.34;;;12.59;100.00
32083;BME280;18597;48.328;7.932;2023-05-01T06:40:36;99342.53;;;12.43;100.00
32083;BME280;18597;48.328;7.932;2023-05-01T06:43:02;99342.03;;;12.03;100.00
32083;BME280;18597;48.328;7.932;2023-05-01T06:45:28;99344.34;;;11.88;100.00
32083;BME280;18597;48.328;7.932;2023-05-01T06:47:54;99340.28;;;11.74;100.00
32083;BME280;18597;48.328;7.932;2023-05-01T06:50:20;99344.66;;;11.65;100.00
32083;BME280;18597;48.328;7.932;2023-05-01T06:52:45;99342.53;;;11.69;100.00
32083;BME280;18597;48.328;7.932;2023-05-01T06:55:11;99349.28;;;11.73;100.00
32083;BME280;18597;48.328;7.932;2023-05-01T06:57:37;99352.50;;;11.77;100.00
32083;BME280;18597;48.328;7.932;2023-05-01T07:00:05;99354.75;;;11.91;100.00
32083;BME280;18597;48.328;7.932;2023-05-01T07:02:31;99352.19;;;11.99;100.00
32083;BME280;18597;48.328;7.932;2023-05-01T07:04:57;99352.03;;;12.01;100.00
32083;BME280;18597;48.328;7.932;2023-05-01T07:07:23;99353.03;;;12.00;100.00
32083;BME280;18597;48.328;7.932;2023-05-01T07:09:48;99354.44;;;12.04;100.00
32083;BME280;18597;48.328;7.932;2023-05-01T07:12:14;99357.38;;;12.10;100.00
32083;BME280;18597;48.328;7.932;2023-05-01T07:14:40;99352.28;;;12.17;100.00
32083;BME280;18597;48.328;7.932;2023-05-01T07:17:06;99351.66;;;12.23;100.00
32083;BME280;18597;48.328;7.932;2023-05-01T07:19:33;99357.66;;;12.35;100.00
32083;BME280;18597;48.328;7.932;2023-05-01T07:21:59;99354.19;;;12.52;100.00
32083;BME280;18597;48.328;7.932;2023-05-01T07:24:25;99358.03;;;12.67;100.00
32083;BME280;18597;48.328;7.932;2023-05-01T07:26:51;99355.31;;;12.95;100.00
32083;BME280;18597;48.328;7.932;2023-05-01T07:29:17;99351.03;;;13.20;100.00
32083;BME280;18597;48.328;7.932;2023-05-01T07:31:44;99345.84;;;13.44;100.00
32083;BME280;18597;48.328;7.932;2023-05-01T07:34:10;99346.28;;;13.57;100.00
32083;BME280;18597;48.328;7.932;2023-05-01T07:36:36;99351.25;;;13.70;100.00
32083;BME280;18597;48.328;7.932;2023-05-01T07:39:03;99349.59;;;14.03;100.00
32083;BME280;18597;48.328;7.932;2023-05-01T07:41:30;99345.53;;;14.41;100.00
32083;BME280;18597;48.328;7.932;2023-05-01T07:43:58;99342.31;;;14.72;100.00
32083;BME280;18597;48.328;7.932;2023-05-01T07:46:24;99347.41;;;15.16;100.00
32083;BME280;18597;48.328;7.932;2023-05-01T07:48:50;99347.44;;;15.73;100.00
32083;BME280;18597;48.328;7.932;2023-05-01T07:51:16;99346.25;;;16.23;100.00
32083;BME280;18597;48.328;7.932;2023-05-01T07:53:42;99348.41;;;16.75;100.00
32083;BME280;18597;48.328;7.932;2023-05-01T07:56:09;99344.41;;;17.39;100.00
32083;BME280;18597;48.328;7.932;2023-05-01T07:58:35;99346.38;;;17.98;100.00
32083;BME280;18597;48.328;7.932;2023-05-01T08:01:02;99341.56;;;18.23;100.00
32083;BME280;18597;48.328;7.932;2023-05-01T08:03:29;99340.28;;;18.55;100.00
32083;BME280;18597;48.328;7.932;2023-05-01T08:05:56;99342.19;;;17.95;100.00
32083;BME280;18597;48.328;7.932;2023-05-01T08:08:22;99341.75;;;18.07;100.00
32083;BME280;18597;48.328;7.932;2023-05-01T08:10:49;99340.81;;;18.29;100.00
32083;BME280;18597;48.328;7.932;2023-05-01T08:13:15;99346.56;;;18.26;100.00
32083;BME280;18597;48.328;7.932;2023-05-01T08:15:41;99346.84;;;18.97;100.00
32083;BME280;18597;48.328;7.932;2023-05-01T08:18:08;99339.78;;;20.77;96.79
32083;BME280;18597;48.328;7.932;2023-05-01T08:20:35;99347.41;;;21.15;87.88
32083;BME280;18597;48.328;7.932;2023-05-01T08:23:01;99346.16;;;21.04;91.47
32083;BME280;18597;48.328;7.932;2023-05-01T08:25:27;99351.28;;;20.72;94.54
32083;BME280;18597;48.328;7.932;2023-05-01T08:27:54;99344.66;;;20.40;93.67
32083;BME280;18597;48.328;7.932;2023-05-01T08:30:20;99343.34;;;20.77;98.51
32083;BME280;18597;48.328;7.932;2023-05-01T08:32:46;99335.53;;;22.02;95.58
32083;BME280;18597;48.328;7.932;2023-05-01T08:35:12;99334.75;;;23.36;85.56
32083;BME280;18597;48.328;7.932;2023-05-01T08:37:37;99328.75;;;25.47;78.21
32083;BME280;18597;48.328;7.932;2023-05-01T08:40:04;99342.50;;;26.41;57.05
32083;BME280;18597;48.328;7.932;2023-05-01T08:42:36;99328.72;;;26.64;55.25
32083;BME280;18597;48.328;7.932;2023-05-01T08:45:07;99332.38;;;26.41;54.33
32083;BME280;18597;48.328;7.932;2023-05-01T08:47:36;99334.09;;;25.54;53.39
32083;BME280;18597;48.328;7.932;2023-05-01T08:50:03;99336.97;;;24.39;57.94
32083;BME280;18597;48.328;7.932;2023-05-01T08:52:34;99340.66;;;23.26;57.36
32083;BME280;18597;48.328;7.932;2023-05-01T08:55:01;99331.88;;;22.48;57.33
32083;BME280;18597;48.328;7.932;2023-05-01T08:57:29;99329.06;;;21.83;59.10
32083;BME280;18597;48.328;7.932;2023-05-01T08:59:56;99329.88;;;21.17;60.59
32083;BME280;18597;48.328;7.932;2023-05-01T09:02:23;99335.03;;;20.86;63.16
32083;BME280;18597;48.328;7.932;2023-05-01T09:04:50;99334.78;;;20.74;63.55
32083;BME280;18597;48.328;7.932;2023-05-01T09:07:17;99330.84;;;20.83;64.79
32083;BME280;18597;48.328;7.932;2023-05-01T09:09:43;99329.03;;;21.10;64.45
32083;BME280;18597;48.328;7.932;2023-05-01T09:12:25;99321.75;;;21.37;59.37
32083;BME280;18597;48.328;7.932;2023-05-01T09:14:52;99325.31;;;21.44;58.96
32083;BME280;18597;48.328;7.932;2023-05-01T09:17:20;99320.31;;;21.48;60.92
32083;BME280;18597;48.328;7.932;2023-05-01T09:19:48;99321.34;;;21.60;61.71
32083;BME280;18597;48.328;7.932;2023-05-01T09:22:15;99322.13;;;22.07;57.40
32083;BME280;18597;48.328;7.932;2023-05-01T09:24:43;99319.44;;;22.58;51.21
32083;BME280;18597;48.328;7.932;2023-05-01T09:27:12;99311.34;;;23.28;52.50
32083;BME280;18597;48.328;7.932;2023-05-01T09:29:42;99312.41;;;23.95;52.06
32083;BME280;18597;48.328;7.932;2023-05-01T09:32:19;99317.78;;;24.45;47.94
32083;BME280;18597;48.328;7.932;2023-05-01T09:34:47;99315.22;;;24.80;46.58
32083;BME280;18597;48.328;7.932;2023-05-01T09:37:31;99318.50;;;24.16;46.63
32083;BME280;18597;48.328;7.932;2023-05-01T09:40:17;99313.78;;;23.36;48.50
32083;BME280;18597;48.328;7.932;2023-05-01T09:42:51;99310.13;;;22.86;49.60
32083;BME280;18597;48.328;7.932;2023-05-01T09:45:18;99312.47;;;22.24;50.77
32083;BME280;18597;48.328;7.932;2023-05-01T09:47:45;99310.56;;;22.31;52.95
32083;BME280;18597;48.328;7.932;2023-05-01T09:50:32;99303.91;;;22.65;50.37
32083;BME280;18597;48.328;7.932;2023-05-01T09:53:01;99302.78;;;22.86;51.24
32083;BME280;18597;48.328;7.932;2023-05-01T09:55:29;99305.13;;;23.14;49.50
32083;BME280;18597;48.328;7.932;2023-05-01T09:57:55;99307.59;;;22.84;48.41
32083;BME280;18597;48.328;7.932;2023-05-01T10:00:23;99302.13;;;22.97;47.20
32083;BME280;18597;48.328;7.932;2023-05-01T10:02:50;99302.19;;;23.16;46.59
32083;BME280;18597;48.328;7.932;2023-05-01T10:05:18;99296.63;;;23.61;46.87
32083;BME280;18597;48.328;7.932;2023-05-01T10:08:01;99292.94;;;23.92;45.60
32083;BME280;18597;48.328;7.932;2023-05-01T10:10:28;99294.38;;;23.76;45.53
32083;BME280;18597;48.328;7.932;2023-05-01T10:12:54;99297.16;;;23.69;45.63
32083;BME280;18597;48.328;7.932;2023-05-01T10:15:20;99295.19;;;23.51;45.69
32083;BME280;18597;48.328;7.932;2023-05-01T10:17:49;99292.59;;;23.38;43.66
32083;BME280;18597;48.328;7.932;2023-05-01T10:20:16;99290.91;;;23.37;45.34
32083;BME280;18597;48.328;7.932;2023-05-01T10:22:42;99285.41;;;23.44;45.33
32083;BME280;18597;48.328;7.932;2023-05-01T10:25:09;99281.94;;;23.30;44.08
32083;BME280;18597;48.328;7.932;2023-05-01T10:27:39;99283.44;;;23.01;44.15
32083;BME280;18597;48.328;7.932;2023-05-01T10:30:06;99289.53;;;22.52;44.89
32083;BME280;18597;48.328;7.932;2023-05-01T10:32:34;99285.97;;;22.51;43.71
32083;BME280;18597;48.328;7.932;2023-05-01T10:35:07;99287.06;;;22.82;44.17
32083;BME280;18597;48.328;7.932;2023-05-01T10:37:58;99283.34;;;23.14;43.09
32083;BME280;18597;48.328;7.932;2023-05-01T10:40:46;99285.00;;;23.65;41.78
32083;BME280;18597;48.328;7.932;2023-05-01T10:43:24;99284.84;;;24.22;39.56
32083;BME280;18597;48.328;7.932;2023-05-01T10:45:52;99285.44;;;24.24;40.08
32083;BME280;18597;48.328;7.932;2023-05-01T10:51:13;99280.84;;;24.06;38.66
32083;BME280;18597;48.328;7.932;2023-05-01T10:53:41;99284.38;;;24.25;39.02
32083;BME280;18597;48.328;7.932;2023-05-01T10:59:03;99279.97;;;24.24;38.39
32083;BME280;18597;48.328;7.932;2023-05-01T11:01:50;99272.91;;;24.41;37.56
32083;BME280;18597;48.328;7.932;2023-05-01T11:09:41;99267.13;;;25.21;36.39
32083;BME280;18597;48.328;7.932;2023-05-01T11:12:10;99266.06;;;25.45;35.54
32083;BME280;18597;48.328;7.932;2023-05-01T11:17:43;99266.63;;;25.12;36.01
32083;BME280;18597;48.328;7.932;2023-05-01T11:23:16;99271.28;;;24.82;36.42
32083;BME280;18597;48.328;7.932;2023-05-01T11:25:42;99253.69;;;25.20;36.48
32083;BME280;18597;48.328;7.932;2023-05-01T11:28:08;99257.78;;;24.99;35.53
32083;BME280;18597;48.328;7.932;2023-05-01T11:30:36;99250.00;;;24.72;36.74
32083;BME280;18597;48.328;7.932;2023-05-01T11:33:03;99242.97;;;24.76;35.21
32083;BME280;18597;48.328;7.932;2023-05-01T11:35:30;99242.22;;;24.57;37.24
32083;BME280;18597;48.328;7.932;2023-05-01T11:37:56;99239.59;;;24.62;37.28
32083;BME280;18597;48.328;7.932;2023-05-01T11:40:25;99233.41;;;24.55;36.63
32083;BME280;18597;48.328;7.932;2023-05-01T11:43:02;99246.91;;;24.32;36.89
32083;BME280;18597;48.328;7.932;2023-05-01T11:45:29;99242.56;;;24.13;38.25
32083;BME280;18597;48.328;7.932;2023-05-01T11:47:55;99238.91;;;24.00;37.14
32083;BME280;18597;48.328;7.932;2023-05-01T11:50:21;99229.91;;;23.82;37.95
32083;BME280;18597;48.328;7.932;2023-05-01T11:52:49;99223.84;;;23.54;37.86
32083;BME280;18597;48.328;7.932;2023-05-01T11:55:19;99231.94;;;23.43;39.63
32083;BME280;18597;48.328;7.932;2023-05-01T11:57:50;99246.91;;;23.59;38.01
32083;BME280;18597;48.328;7.932;2023-05-01T12:00:28;99238.28;;;23.80;38.69
32083;BME280;18597;48.328;7.932;2023-05-01T12:02:58;99235.03;;;24.08;38.17
32083;BME280;18597;48.328;7.932;2023-05-01T12:05:26;99226.63;;;23.91;38.67
32083;BME280;18597;48.328;7.932;2023-05-01T12:08:16;99232.00;;;23.79;38.73
32083;BME280;18597;48.328;7.932;2023-05-01T12:10:44;99219.16;;;23.43;38.89
32083;BME280;18597;48.328;7.932;2023-05-01T12:13:12;99236.28;;;23.25;40.07
32083;BME280;18597;48.328;7.932;2023-05-01T12:15:44;99230.06;;;23.43;38.20
32083;BME280;18597;48.328;7.932;2023-05-01T12:18:12;99237.53;;;23.48;38.42
32083;BME280;18597;48.328;7.932;2023-05-01T12:20:42;99233.91;;;23.97;36.56
32083;BME280;18597;48.328;7.932;2023-05-01T12:23:10;99237.50;;;24.65;37.27
32083;BME280;18597;48.328;7.932;2023-05-01T12:25:38;99231.13;;;24.82;36.07
32083;BME280;18597;48.328;7.932;2023-05-01T12:28:16;99229.94;;;25.20;36.13
32083;BME280;18597;48.328;7.932;2023-05-01T12:30:45;99233.41;;;25.74;35.99
32083;BME280;18597;48.328;7.932;2023-05-01T12:33:15;99232.09;;;25.65;35.15
32083;BME280;18597;48.328;7.932;2023-05-01T12:35:43;99238.75;;;25.81;34.17
32083;BME280;18597;48.328;7.932;2023-05-01T12:38:18;99246.47;;;25.60;36.08
32083;BME280;18597;48.328;7.932;2023-05-01T12:40:57;99240.78;;;25.73;36.11
32083;BME280;18597;48.328;7.932;2023-05-01T12:43:33;99241.00;;;25.95;35.75
32083;BME280;18597;48.328;7.932;2023-05-01T12:46:00;99245.59;;;26.07;36.12
32083;BME280;18597;48.328;7.932;2023-05-01T12:48:26;99249.94;;;25.56;37.14
32083;BME280;18597;48.328;7.932;2023-05-01T12:50:52;99254.16;;;25.05;36.99
32083;BME280;18597;48.328;7.932;2023-05-01T12:53:21;99261.03;;;24.47;38.50
32083;BME280;18597;48.328;7.932;2023-05-01T12:55:50;99255.53;;;23.80;38.25
32083;BME280;18597;48.328;7.932;2023-05-01T12:58:17;99252.53;;;22.82;40.32
32083;BME280;18597;48.328;7.932;2023-05-01T13:00:48;99259.47;;;22.33;41.50
32083;BME280;18597;48.328;7.932;2023-05-01T13:03:21;99261.53;;;21.73;42.88
32083;BME280;18597;48.328;7.932;2023-05-01T13:06:01;99273.47;;;21.59;42.91
32083;BME280;18597;48.328;7.932;2023-05-01T13:11:11;99277.72;;;22.26;42.58
32083;BME280;18597;48.328;7.932;2023-05-01T13:13:38;99279.25;;;21.96;43.44
32083;BME280;18597;48.328;7.932;2023-05-01T13:16:11;99273.88;;;21.69;43.38
32083;BME280;18597;48.328;7.932;2023-05-01T13:18:50;99286.63;;;21.02;44.15
32083;BME280;18597;48.328;7.932;2023-05-01T13:21:19;99283.34;;;20.53;45.30
32083;BME280;18597;48.328;7.932;2023-05-01T13:23:57;99279.69;;;20.26;45.87
32083;BME280;18597;48.328;7.932;2023-05-01T13:26:27;99287.00;;;19.90;46.14
32083;BME280;18597;48.328;7.932;2023-05-01T13:28:53;99279.66;;;19.84;46.14
32083;BME280;18597;48.328;7.932;2023-05-01T13:31:20;99272.91;;;19.67;45.54
32083;BME280;18597;48.328;7.932;2023-05-01T13:33:49;99276.41;;;20.02;45.61